sensor_id;sensor_type;location;lat;lon;timestamp;P1;durP1;ratioP1;P2;durP2;ratioP2
62997;SDS011;55949;52.590;7.330;2022-12-18T00:00:58;44.38;;;17.85;;
62997;SDS011;55949;52.590;7.330;2022-12-18T00:01:59;45.38;;;17.40;;
62997;SDS011;55949;52.590;7.330;2022-12-18T00:03:00;49.03;;;19.30;;
62997;SDS011;55949;52.590;7.330;2022-12-18T00:04:01;49.85;;;17.92;;
62997;SDS011;55949;52.590;7.330;2022-12-18T00:05:11;51.88;;;18.60;;
62997;SDS011;55949;52.590;7.330;2022-12-18T00:06:11;52.83;;;18.27;;
62997;SDS011;55949;52.590;7.330;2022-12-18T00:07:13;53.20;;;19.38;;
62997;SDS011;55949;52.590;7.330;2022-12-18T00:08:14;53.53;;;19.60;;
62997;SDS011;55949;52.590;7.330;2022-12-18T00:09:15;48.53;;;17.38;;
62997;SDS011;55949;52.590;7.330;2022-12-18T00:10:19;42.20;;;16.40;;
62997;SDS011;55949;52.590;7.330;2022-12-18T00:11:21;47.25;;;18.58;;
62997;SDS011;55949;52.590;7.330;2022-12-18T00:12:23;48.15;;;19.63;;
62997;SDS011;55949;52.590;7.330;2022-12-18T00:13:24;52.72;;;19.08;;
62997;SDS011;55949;52.590;7.330;2022-12-18T00:14:25;48.92;;;18.92;;
62997;SDS011;55949;52.590;7.330;2022-12-18T00:15:25;47.78;;;19.30;;
62997;SDS011;55949;52.590;7.330;2022-12-18T00:16:26;54.97;;;19.02;;
62997;SDS011;55949;52.590;7.330;2022-12-18T00:17:28;45.88;;;17.08;;
62997;SDS011;55949;52.590;7.330;2022-12-18T00:18:29;50.60;;;19.30;;
62997;SDS011;55949;52.590;7.330;2022-12-18T00:19:29;47.90;;;17.70;;
62997;SDS011;55949;52.590;7.330;2022-12-18T00:20:30;49.80;;;17.52;;
62997;SDS011;55949;52.590;7.330;2022-12-18T00:21:31;44.55;;;17.17;;
62997;SDS011;55949;52.590;7.330;2022-12-18T00:22:32;46.83;;;16.80;;
62997;SDS011;55949;52.590;7.330;2022-12-18T00:23:34;46.10;;;16.98;;
62997;SDS011;55949;52.590;7.330;2022-12-18T00:24:35;48.95;;;18.65;;
62997;SDS011;55949;52.590;7.330;2022-12-18T00:25:36;50.17;;;16.92;;
62997;SDS011;55949;52.590;7.330;2022-12-18T00:26:37;49.03;;;18.55;;
62997;SDS011;55949;52.590;7.330;2022-12-18T00:27:38;43.05;;;16.00;;
62997;SDS011;55949;52.590;7.330;2022-12-18T00:28:39;37.13;;;16.80;;
62997;SDS011;55949;52.590;7.330;2022-12-18T00:29:40;40.55;;;15.82;;
62997;SDS011;55949;52.590;7.330;2022-12-18T00:30:41;44.63;;;16.25;;
62997;SDS011;55949;52.590;7.330;2022-12-18T00:31:42;43.70;;;17.30;;
62997;SDS011;55949;52.590;7.330;2022-12-18T00:32:43;40.22;;;14.02;;
62997;SDS011;55949;52.590;7.330;2022-12-18T00:33:44;41.00;;;17.15;;
62997;SDS011;55949;52.590;7.330;2022-12-18T00:34:45;40.60;;;15.45;;
62997;SDS011;55949;52.590;7.330;2022-12-18T00:35:46;46.25;;;16.52;;
62997;SDS011;55949;52.590;7.330;2022-12-18T00:36:47;37.53;;;14.80;;
62997;SDS011;55949;52.590;7.330;2022-12-18T00:37:48;45.70;;;16.45;;
62997;SDS011;55949;52.590;7.330;2022-12-18T00:38:49;36.47;;;14.45;;
62997;SDS011;55949;52.590;7.330;2022-12-18T00:39:50;40.50;;;16.73;;
62997;SDS011;55949;52.590;7.330;2022-12-18T00:40:51;41.85;;;17.77;;
62997;SDS011;55949;52.590;7.330;2022-12-18T00:41:52;42.10;;;16.90;;
62997;SDS011;55949;52.590;7.330;2022-12-18T00:43:11;42.65;;;16.25;;
62997;SDS011;55949;52.590;7.330;2022-12-18T00:44:13;34.97;;;14.60;;
62997;SDS011;55949;52.590;7.330;2022-12-18T00:45:14;38.20;;;14.90;;
62997;SDS011;55949;52.590;7.330;2022-12-18T00:46:15;38.90;;;16.58;;
62997;SDS011;55949;52.590;7.330;2022-12-18T00:47:16;36.83;;;14.98;;
62997;SDS011;55949;52.590;7.330;2022-12-18T00:48:17;41.50;;;14.90;;
62997;SDS011;55949;52.590;7.330;2022-12-18T00:49:18;42.28;;;16.90;;
62997;SDS011;55949;52.590;7.330;2022-12-18T00:50:20;40.75;;;17.52;;
62997;SDS011;55949;52.590;7.330;2022-12-18T00:51:21;41.22;;;14.38;;
62997;SDS011;55949;52.590;7.330;2022-12-18T00:52:21;45.42;;;15.43;;
62997;SDS011;55949;52.590;7.330;2022-12-18T00:53:22;34.35;;;15.77;;
62997;SDS011;55949;52.590;7.330;2022-12-18T00:54:23;39.47;;;16.10;;
62997;SDS011;55949;52.590;7.330;2022-12-18T00:55:24;39.55;;;14.55;;
62997;SDS011;55949;52.590;7.330;2022-12-18T00:56:24;35.72;;;16.00;;
62997;SDS011;55949;52.590;7.330;2022-12-18T00:57:25;36.97;;;14.80;;
62997;SDS011;55949;52.590;7.330;2022-12-18T00:58:26;33.03;;;13.93;;
62997;SDS011;55949;52.590;7.330;2022-12-18T00:59:26;39.42;;;15.15;;
62997;SDS011;55949;52.590;7.330;2022-12-18T01:00:27;35.60;;;14.18;;
62997;SDS011;55949;52.590;7.330;2022-12-18T01:01:28;34.33;;;15.82;;
62997;SDS011;55949;52.590;7.330;2022-12-18T01:02:28;35.35;;;15.15;;
62997;SDS011;55949;52.590;7.330;2022-12-18T01:03:29;34.30;;;14.88;;
62997;SDS011;55949;52.590;7.330;2022-12-18T01:04:31;41.13;;;15.43;;
62997;SDS011;55949;52.590;7.330;2022-12-18T01:05:33;36.95;;;15.30;;
62997;SDS011;55949;52.590;7.330;2022-12-18T01:06:33;36.17;;;14.43;;
62997;SDS011;55949;52.590;7.330;2022-12-18T01:07:34;40.53;;;15.38;;
62997;SDS011;55949;52.590;7.330;2022-12-18T01:08:35;37.60;;;15.52;;
62997;SDS011;55949;52.590;7.330;2022-12-18T01:09:36;33.95;;;14.25;;
62997;SDS011;55949;52.590;7.330;2022-12-18T01:10:39;39.88;;;15.27;;
62997;SDS011;55949;52.590;7.330;2022-12-18T01:11:40;44.97;;;15.27;;
62997;SDS011;55949;52.590;7.330;2022-12-18T01:12:41;42.22;;;15.75;;
62997;SDS011;55949;52.590;7.330;2022-12-18T01:13:42;42.70;;;16.38;;
62997;SDS011;55949;52.590;7.330;2022-12-18T01:14:43;38.15;;;15.82;;
62997;SDS011;55949;52.590;7.330;2022-12-18T01:15:50;36.53;;;15.80;;
62997;SDS011;55949;52.590;7.330;2022-12-18T01:16:51;42.80;;;15.77;;
62997;SDS011;55949;52.590;7.330;2022-12-18T01:17:52;38.63;;;14.00;;
62997;SDS011;55949;52.590;7.330;2022-12-18T01:18:53;35.85;;;15.07;;
62997;SDS011;55949;52.590;7.330;2022-12-18T01:19:54;41.22;;;15.50;;
62997;SDS011;55949;52.590;7.330;2022-12-18T01:20:55;41.88;;;16.13;;
62997;SDS011;55949;52.590;7.330;2022-12-18T01:21:56;44.40;;;17.67;;
62997;SDS011;55949;52.590;7.330;2022-12-18T01:22:56;40.22;;;16.48;;
62997;SDS011;55949;52.590;7.330;2022-12-18T01:23:57;42.08;;;16.65;;
62997;SDS011;55949;52.590;7.330;2022-12-18T01:24:58;41.20;;;16.27;;
62997;SDS011;55949;52.590;7.330;2022-12-18T01:26:03;38.58;;;16.33;;
62997;SDS011;55949;52.590;7.330;2022-12-18T01:27:07;42.08;;;15.98;;
62997;SDS011;55949;52.590;7.330;2022-12-18T01:28:08;37.88;;;14.52;;
62997;SDS011;55949;52.590;7.330;2022-12-18T01:29:08;43.90;;;16.90;;
62997;SDS011;55949;52.590;7.330;2022-12-18T01:30:09;38.25;;;14.45;;
62997;SDS011;55949;52.590;7.330;2022-12-18T01:31:11;33.22;;;13.95;;
62997;SDS011;55949;52.590;7.330;2022-12-18T01:32:13;42.70;;;16.38;;
62997;SDS011;55949;52.590;7.330;2022-12-18T01:33:14;37.38;;;15.95;;
62997;SDS011;55949;52.590;7.330;2022-12-18T01:34:15;41.55;;;14.68;;
62997;SDS011;55949;52.590;7.330;2022-12-18T01:35:15;44.50;;;16.38;;
62997;SDS011;55949;52.590;7.330;2022-12-18T01:36:23;44.22;;;17.45;;
62997;SDS011;55949;52.590;7.330;2022-12-18T01:37:28;36.88;;;13.88;;
62997;SDS011;55949;52.590;7.330;2022-12-18T01:38:29;30.05;;;13.73;;
62997;SDS011;55949;52.590;7.330;2022-12-18T01:39:29;41.53;;;14.65;;
62997;SDS011;55949;52.590;7.330;2022-12-18T01:40:31;35.30;;;13.77;;
62997;SDS011;55949;52.590;7.330;2022-12-18T01:41:32;40.45;;;15.32;;
62997;SDS011;55949;52.590;7.330;2022-12-18T01:42:53;36.17;;;13.15;;
62997;SDS011;55949;52.590;7.330;2022-12-18T01:43:55;35.33;;;13.55;;
62997;SDS011;55949;52.590;7.330;2022-12-18T01:45:59;32.45;;;13.63;;
62997;SDS011;55949;52.590;7.330;2022-12-18T01:47:00;30.15;;;12.93;;
62997;SDS011;55949;52.590;7.330;2022-12-18T01:48:02;33.63;;;15.63;;
62997;SDS011;55949;52.590;7.330;2022-12-18T01:49:06;36.40;;;14.15;;
62997;SDS011;55949;52.590;7.330;2022-12-18T01:50:10;35.30;;;15.55;;
62997;SDS011;55949;52.590;7.330;2022-12-18T01:51:27;34.90;;;12.82;;
62997;SDS011;55949;52.590;7.330;2022-12-18T01:52:31;33.20;;;14.20;;
62997;SDS011;55949;52.590;7.330;2022-12-18T01:53:32;38.10;;;14.90;;
62997;SDS011;55949;52.590;7.330;2022-12-18T01:54:33;34.40;;;14.55;;
62997;SDS011;55949;52.590;7.330;2022-12-18T01:55:39;44.33;;;16.33;;
62997;SDS011;55949;52.590;7.330;2022-12-18T01:56:51;39.45;;;15.52;;
62997;SDS011;55949;52.590;7.330;2022-12-18T01:57:52;38.17;;;14.82;;
62997;SDS011;55949;52.590;7.330;2022-12-18T01:59:00;32.88;;;14.07;;
62997;SDS011;55949;52.590;7.330;2022-12-18T02:00:06;38.88;;;14.95;;
62997;SDS011;55949;52.590;7.330;2022-12-18T02:01:12;35.33;;;13.55;;
62997;SDS011;55949;52.590;7.330;2022-12-18T02:02:13;33.33;;;14.40;;
62997;SDS011;55949;52.590;7.330;2022-12-18T02:03:16;32.33;;;15.10;;
62997;SDS011;55949;52.590;7.330;2022-12-18T02:04:24;39.85;;;15.35;;
62997;SDS011;55949;52.590;7.330;2022-12-18T02:06:39;34.78;;;15.38;;
62997;SDS011;55949;52.590;7.330;2022-12-18T02:13:14;37.35;;;13.48;;
62997;SDS011;55949;52.590;7.330;2022-12-18T02:15:33;37.15;;;13.75;;
62997;SDS011;55949;52.590;7.330;2022-12-18T02:18:11;40.47;;;14.25;;
62997;SDS011;55949;52.590;7.330;2022-12-18T02:20:42;35.65;;;13.68;;
62997;SDS011;55949;52.590;7.330;2022-12-18T02:24:47;26.50;;;12.05;;
62997;SDS011;55949;52.590;7.330;2022-12-18T02:26:26;29.30;;;12.77;;
62997;SDS011;55949;52.590;7.330;2022-12-18T02:27:28;30.35;;;12.65;;
62997;SDS011;55949;52.590;7.330;2022-12-18T02:28:32;34.05;;;13.52;;
62997;SDS011;55949;52.590;7.330;2022-12-18T02:29:46;34.30;;;13.48;;
62997;SDS011;55949;52.590;7.330;2022-12-18T02:30:51;29.40;;;13.98;;
62997;SDS011;55949;52.590;7.330;2022-12-18T02:31:57;33.70;;;13.07;;
62997;SDS011;55949;52.590;7.330;2022-12-18T02:33:03;27.23;;;13.38;;
62997;SDS011;55949;52.590;7.330;2022-12-18T02:34:06;27.17;;;13.05;;
62997;SDS011;55949;52.590;7.330;2022-12-18T02:35:13;32.15;;;12.90;;
62997;SDS011;55949;52.590;7.330;2022-12-18T02:36:18;32.72;;;13.77;;
62997;SDS011;55949;52.590;7.330;2022-12-18T02:37:21;29.58;;;12.80;;
62997;SDS011;55949;52.590;7.330;2022-12-18T02:38:24;32.00;;;14.13;;
62997;SDS011;55949;52.590;7.330;2022-12-18T02:39:25;36.50;;;15.15;;
62997;SDS011;55949;52.590;7.330;2022-12-18T02:40:28;28.20;;;12.30;;
62997;SDS011;55949;52.590;7.330;2022-12-18T02:41:30;31.35;;;12.55;;
62997;SDS011;55949;52.590;7.330;2022-12-18T02:42:31;30.75;;;12.88;;
62997;SDS011;55949;52.590;7.330;2022-12-18T02:43:32;38.78;;;12.98;;
62997;SDS011;55949;52.590;7.330;2022-12-18T02:44:46;30.25;;;12.38;;
62997;SDS011;55949;52.590;7.330;2022-12-18T02:45:53;28.48;;;12.73;;
62997;SDS011;55949;52.590;7.330;2022-12-18T02:46:56;31.33;;;12.15;;
62997;SDS011;55949;52.590;7.330;2022-12-18T02:47:57;36.17;;;14.02;;
62997;SDS011;55949;52.590;7.330;2022-12-18T02:49:01;27.73;;;12.02;;
62997;SDS011;55949;52.590;7.330;2022-12-18T02:50:33;27.27;;;12.63;;
62997;SDS011;55949;52.590;7.330;2022-12-18T02:56:52;28.30;;;11.98;;
62997;SDS011;55949;52.590;7.330;2022-12-18T02:58:01;31.05;;;11.75;;
62997;SDS011;55949;52.590;7.330;2022-12-18T02:59:13;26.73;;;11.50;;
62997;SDS011;55949;52.590;7.330;2022-12-18T03:01:35;29.17;;;12.55;;
62997;SDS011;55949;52.590;7.330;2022-12-18T03:04:07;28.55;;;12.43;;
62997;SDS011;55949;52.590;7.330;2022-12-18T03:05:22;26.27;;;12.10;;
62997;SDS011;55949;52.590;7.330;2022-12-18T03:06:32;29.27;;;12.52;;
62997;SDS011;55949;52.590;7.330;2022-12-18T03:07:46;26.35;;;12.00;;
62997;SDS011;55949;52.590;7.330;2022-12-18T03:09:09;19.65;;;10.02;;
62997;SDS011;55949;52.590;7.330;2022-12-18T03:10:16;22.17;;;10.52;;
62997;SDS011;55949;52.590;7.330;2022-12-18T03:11:23;29.30;;;13.02;;
62997;SDS011;55949;52.590;7.330;2022-12-18T03:12:51;25.30;;;12.15;;
62997;SDS011;55949;52.590;7.330;2022-12-18T03:14:01;24.45;;;11.40;;
62997;SDS011;55949;52.590;7.330;2022-12-18T03:16:29;22.23;;;10.65;;
62997;SDS011;55949;52.590;7.330;2022-12-18T03:17:32;25.85;;;11.73;;
62997;SDS011;55949;52.590;7.330;2022-12-18T03:18:38;25.05;;;11.52;;
62997;SDS011;55949;52.590;7.330;2022-12-18T03:19:44;21.75;;;10.18;;
62997;SDS011;55949;52.590;7.330;2022-12-18T03:20:47;26.40;;;13.35;;
62997;SDS011;55949;52.590;7.330;2022-12-18T03:21:51;25.65;;;11.95;;
62997;SDS011;55949;52.590;7.330;2022-12-18T03:22:57;22.88;;;11.07;;
62997;SDS011;55949;52.590;7.330;2022-12-18T03:24:05;25.23;;;12.02;;
62997;SDS011;55949;52.590;7.330;2022-12-18T03:25:09;23.75;;;10.65;;
62997;SDS011;55949;52.590;7.330;2022-12-18T03:26:16;27.27;;;12.65;;
62997;SDS011;55949;52.590;7.330;2022-12-18T03:27:21;25.05;;;11.50;;
62997;SDS011;55949;52.590;7.330;2022-12-18T03:28:25;28.52;;;11.75;;
62997;SDS011;55949;52.590;7.330;2022-12-18T03:30:40;23.83;;;12.40;;
62997;SDS011;55949;52.590;7.330;2022-12-18T03:31:45;31.98;;;11.88;;
62997;SDS011;55949;52.590;7.330;2022-12-18T03:32:58;25.80;;;11.63;;
62997;SDS011;55949;52.590;7.330;2022-12-18T03:34:21;22.73;;;10.95;;
62997;SDS011;55949;52.590;7.330;2022-12-18T03:35:26;25.75;;;10.90;;
62997;SDS011;55949;52.590;7.330;2022-12-18T03:36:31;26.95;;;10.82;;
62997;SDS011;55949;52.590;7.330;2022-12-18T03:37:32;25.23;;;11.82;;
62997;SDS011;55949;52.590;7.330;2022-12-18T03:38:33;28.35;;;11.57;;
62997;SDS011;55949;52.590;7.330;2022-12-18T03:39:34;25.45;;;11.00;;
62997;SDS011;55949;52.590;7.330;2022-12-18T03:40:40;23.20;;;10.60;;
62997;SDS011;55949;52.590;7.330;2022-12-18T03:41:45;25.05;;;11.18;;
62997;SDS011;55949;52.590;7.330;2022-12-18T03:43:00;22.83;;;11.07;;
62997;SDS011;55949;52.590;7.330;2022-12-18T03:44:20;28.02;;;11.60;;
62997;SDS011;55949;52.590;7.330;2022-12-18T03:45:36;26.52;;;11.25;;
62997;SDS011;55949;52.590;7.330;2022-12-18T03:49:09;23.45;;;10.80;;
62997;SDS011;55949;52.590;7.330;2022-12-18T03:50:23;26.20;;;11.30;;
62997;SDS011;55949;52.590;7.330;2022-12-18T03:51:54;25.02;;;9.80;;
62997;SDS011;55949;52.590;7.330;2022-12-18T03:54:14;22.80;;;10.40;;
62997;SDS011;55949;52.590;7.330;2022-12-18T03:55:16;19.58;;;10.32;;
62997;SDS011;55949;52.590;7.330;2022-12-18T03:56:19;28.83;;;12.05;;
62997;SDS011;55949;52.590;7.330;2022-12-18T03:57:26;27.55;;;11.70;;
62997;SDS011;55949;52.590;7.330;2022-12-18T03:58:30;21.33;;;11.88;;
62997;SDS011;55949;52.590;7.330;2022-12-18T03:59:34;24.42;;;9.48;;
62997;SDS011;55949;52.590;7.330;2022-12-18T04:00:37;26.63;;;11.23;;
62997;SDS011;55949;52.590;7.330;2022-12-18T04:01:40;28.60;;;12.40;;
62997;SDS011;55949;52.590;7.330;2022-12-18T04:02:49;21.90;;;10.68;;
62997;SDS011;55949;52.590;7.330;2022-12-18T04:03:52;24.75;;;10.63;;
62997;SDS011;55949;52.590;7.330;2022-12-18T04:04:55;25.05;;;11.70;;
62997;SDS011;55949;52.590;7.330;2022-12-18T04:06:00;26.20;;;10.88;;
62997;SDS011;55949;52.590;7.330;2022-12-18T04:07:02;24.20;;;10.65;;
62997;SDS011;55949;52.590;7.330;2022-12-18T04:08:04;24.08;;;10.52;;
62997;SDS011;55949;52.590;7.330;2022-12-18T04:09:05;24.58;;;11.27;;
62997;SDS011;55949;52.590;7.330;2022-12-18T04:10:06;20.75;;;10.73;;
62997;SDS011;55949;52.590;7.330;2022-12-18T04:11:09;25.42;;;11.70;;
62997;SDS011;55949;52.590;7.330;2022-12-18T04:12:10;28.00;;;10.20;;
62997;SDS011;55949;52.590;7.330;2022-12-18T04:13:10;24.73;;;11.25;;
62997;SDS011;55949;52.590;7.330;2022-12-18T04:14:11;26.70;;;12.43;;
62997;SDS011;55949;52.590;7.330;2022-12-18T04:15:12;24.17;;;11.85;;
62997;SDS011;55949;52.590;7.330;2022-12-18T04:16:13;32.70;;;11.98;;
62997;SDS011;55949;52.590;7.330;2022-12-18T04:17:14;21.83;;;10.38;;
62997;SDS011;55949;52.590;7.330;2022-12-18T04:18:15;21.50;;;10.90;;
62997;SDS011;55949;52.590;7.330;2022-12-18T04:19:15;21.48;;;9.90;;
62997;SDS011;55949;52.590;7.330;2022-12-18T04:20:16;21.13;;;9.43;;
62997;SDS011;55949;52.590;7.330;2022-12-18T04:21:18;23.42;;;10.65;;
62997;SDS011;55949;52.590;7.330;2022-12-18T04:22:19;25.30;;;11.02;;
62997;SDS011;55949;52.590;7.330;2022-12-18T04:23:19;23.92;;;11.00;;
62997;SDS011;55949;52.590;7.330;2022-12-18T04:24:20;18.85;;;8.60;;
62997;SDS011;55949;52.590;7.330;2022-12-18T04:25:21;22.33;;;10.20;;
62997;SDS011;55949;52.590;7.330;2022-12-18T04:26:22;21.38;;;10.52;;
62997;SDS011;55949;52.590;7.330;2022-12-18T04:27:22;19.35;;;10.20;;
62997;SDS011;55949;52.590;7.330;2022-12-18T04:28:23;20.15;;;9.63;;
62997;SDS011;55949;52.590;7.330;2022-12-18T04:29:24;20.90;;;9.20;;
62997;SDS011;55949;52.590;7.330;2022-12-18T04:30:24;25.45;;;10.73;;
62997;SDS011;55949;52.590;7.330;2022-12-18T04:31:25;21.00;;;9.15;;
62997;SDS011;55949;52.590;7.330;2022-12-18T04:32:26;21.90;;;9.32;;
62997;SDS011;55949;52.590;7.330;2022-12-18T04:33:26;21.02;;;9.50;;
62997;SDS011;55949;52.590;7.330;2022-12-18T04:34:27;23.15;;;10.75;;
62997;SDS011;55949;52.590;7.330;2022-12-18T04:35:28;21.77;;;10.05;;
62997;SDS011;55949;52.590;7.330;2022-12-18T04:36:29;20.42;;;8.77;;
62997;SDS011;55949;52.590;7.330;2022-12-18T04:37:30;20.27;;;10.30;;
62997;SDS011;55949;52.590;7.330;2022-12-18T04:38:36;21.52;;;9.57;;
62997;SDS011;55949;52.590;7.330;2022-12-18T04:39:37;20.80;;;9.15;;
62997;SDS011;55949;52.590;7.330;2022-12-18T04:40:37;22.75;;;9.48;;
62997;SDS011;55949;52.590;7.330;2022-12-18T04:41:38;18.70;;;9.32;;
62997;SDS011;55949;52.590;7.330;2022-12-18T04:42:39;21.42;;;9.80;;
62997;SDS011;55949;52.590;7.330;2022-12-18T04:43:40;22.05;;;8.63;;
62997;SDS011;55949;52.590;7.330;2022-12-18T04:44:41;19.27;;;9.63;;
62997;SDS011;55949;52.590;7.330;2022-12-18T04:45:41;20.45;;;9.23;;
62997;SDS011;55949;52.590;7.330;2022-12-18T04:46:42;23.85;;;9.82;;
62997;SDS011;55949;52.590;7.330;2022-12-18T04:47:42;17.85;;;8.90;;
62997;SDS011;55949;52.590;7.330;2022-12-18T04:48:45;23.45;;;10.10;;
62997;SDS011;55949;52.590;7.330;2022-12-18T04:49:46;17.35;;;9.25;;
62997;SDS011;55949;52.590;7.330;2022-12-18T04:50:47;20.40;;;9.57;;
62997;SDS011;55949;52.590;7.330;2022-12-18T04:51:48;15.38;;;8.63;;
62997;SDS011;55949;52.590;7.330;2022-12-18T04:52:48;20.23;;;8.85;;
62997;SDS011;55949;52.590;7.330;2022-12-18T04:53:49;20.65;;;8.15;;
62997;SDS011;55949;52.590;7.330;2022-12-18T04:54:50;20.40;;;9.20;;
62997;SDS011;55949;52.590;7.330;2022-12-18T04:55:50;20.77;;;8.77;;
62997;SDS011;55949;52.590;7.330;2022-12-18T04:57:01;15.00;;;7.65;;
62997;SDS011;55949;52.590;7.330;2022-12-18T04:58:02;18.67;;;8.40;;
62997;SDS011;55949;52.590;7.330;2022-12-18T04:59:02;13.55;;;7.50;;
62997;SDS011;55949;52.590;7.330;2022-12-18T05:00:03;16.05;;;7.75;;
62997;SDS011;55949;52.590;7.330;2022-12-18T05:01:06;19.05;;;7.50;;
62997;SDS011;55949;52.590;7.330;2022-12-18T05:02:07;17.05;;;8.35;;
62997;SDS011;55949;52.590;7.330;2022-12-18T05:03:08;17.55;;;8.18;;
62997;SDS011;55949;52.590;7.330;2022-12-18T05:04:09;17.17;;;8.52;;
62997;SDS011;55949;52.590;7.330;2022-12-18T05:05:09;19.75;;;8.32;;
62997;SDS011;55949;52.590;7.330;2022-12-18T05:06:10;16.88;;;8.10;;
62997;SDS011;55949;52.590;7.330;2022-12-18T05:07:11;16.75;;;8.75;;
62997;SDS011;55949;52.590;7.330;2022-12-18T05:08:12;18.30;;;8.23;;
62997;SDS011;55949;52.590;7.330;2022-12-18T05:09:12;19.15;;;8.60;;
62997;SDS011;55949;52.590;7.330;2022-12-18T05:10:13;15.88;;;8.27;;
62997;SDS011;55949;52.590;7.330;2022-12-18T05:11:14;17.60;;;8.73;;
62997;SDS011;55949;52.590;7.330;2022-12-18T05:12:18;16.73;;;7.30;;
62997;SDS011;55949;52.590;7.330;2022-12-18T05:13:18;20.17;;;8.35;;
62997;SDS011;55949;52.590;7.330;2022-12-18T05:14:19;17.88;;;7.68;;
62997;SDS011;55949;52.590;7.330;2022-12-18T05:15:20;16.13;;;9.07;;
62997;SDS011;55949;52.590;7.330;2022-12-18T05:16:20;17.60;;;7.93;;
62997;SDS011;55949;52.590;7.330;2022-12-18T05:17:21;15.18;;;9.23;;
62997;SDS011;55949;52.590;7.330;2022-12-18T05:18:22;19.38;;;8.40;;
62997;SDS011;55949;52.590;7.330;2022-12-18T05:19:23;15.05;;;8.30;;
62997;SDS011;55949;52.590;7.330;2022-12-18T05:20:24;21.30;;;8.88;;
62997;SDS011;55949;52.590;7.330;2022-12-18T05:21:25;16.30;;;8.13;;
62997;SDS011;55949;52.590;7.330;2022-12-18T05:22:26;18.15;;;7.93;;
62997;SDS011;55949;52.590;7.330;2022-12-18T05:23:27;14.50;;;7.82;;
62997;SDS011;55949;52.590;7.330;2022-12-18T05:24:28;19.45;;;8.05;;
62997;SDS011;55949;52.590;7.330;2022-12-18T05:25:29;19.20;;;8.43;;
62997;SDS011;55949;52.590;7.330;2022-12-18T05:26:29;16.27;;;8.68;;
62997;SDS011;55949;52.590;7.330;2022-12-18T05:27:30;18.40;;;7.65;;
62997;SDS011;55949;52.590;7.330;2022-12-18T05:28:31;17.92;;;7.45;;
62997;SDS011;55949;52.590;7.330;2022-12-18T05:29:33;18.15;;;8.02;;
62997;SDS011;55949;52.590;7.330;2022-12-18T05:30:33;17.50;;;7.57;;
62997;SDS011;55949;52.590;7.330;2022-12-18T05:31:34;17.63;;;8.23;;
62997;SDS011;55949;52.590;7.330;2022-12-18T05:32:35;15.18;;;9.02;;
62997;SDS011;55949;52.590;7.330;2022-12-18T05:33:36;17.70;;;8.93;;
62997;SDS011;55949;52.590;7.330;2022-12-18T05:34:36;20.15;;;8.52;;
62997;SDS011;55949;52.590;7.330;2022-12-18T05:35:37;16.35;;;7.72;;
62997;SDS011;55949;52.590;7.330;2022-12-18T05:36:38;18.02;;;7.47;;
62997;SDS011;55949;52.590;7.330;2022-12-18T05:37:38;16.83;;;8.00;;
62997;SDS011;55949;52.590;7.330;2022-12-18T05:38:39;16.95;;;8.88;;
62997;SDS011;55949;52.590;7.330;2022-12-18T05:39:40;17.15;;;9.35;;
62997;SDS011;55949;52.590;7.330;2022-12-18T05:40:43;18.92;;;9.68;;
62997;SDS011;55949;52.590;7.330;2022-12-18T05:41:44;19.92;;;9.38;;
62997;SDS011;55949;52.590;7.330;2022-12-18T05:42:45;19.98;;;9.65;;
62997;SDS011;55949;52.590;7.330;2022-12-18T05:43:45;17.30;;;8.68;;
62997;SDS011;55949;52.590;7.330;2022-12-18T05:44:46;18.25;;;9.55;;
62997;SDS011;55949;52.590;7.330;2022-12-18T05:45:47;20.63;;;9.50;;
62997;SDS011;55949;52.590;7.330;2022-12-18T05:46:48;21.25;;;9.18;;
62997;SDS011;55949;52.590;7.330;2022-12-18T05:47:48;19.70;;;9.52;;
62997;SDS011;55949;52.590;7.330;2022-12-18T05:48:49;18.55;;;10.13;;
62997;SDS011;55949;52.590;7.330;2022-12-18T05:49:50;16.92;;;8.60;;
62997;SDS011;55949;52.590;7.330;2022-12-18T05:50:51;21.80;;;9.38;;
62997;SDS011;55949;52.590;7.330;2022-12-18T05:51:52;17.48;;;9.35;;
62997;SDS011;55949;52.590;7.330;2022-12-18T05:52:52;25.15;;;9.45;;
62997;SDS011;55949;52.590;7.330;2022-12-18T05:53:53;21.27;;;9.38;;
62997;SDS011;55949;52.590;7.330;2022-12-18T05:54:54;18.88;;;9.60;;
62997;SDS011;55949;52.590;7.330;2022-12-18T05:55:59;23.08;;;9.85;;
62997;SDS011;55949;52.590;7.330;2022-12-18T05:57:00;19.70;;;8.23;;
62997;SDS011;55949;52.590;7.330;2022-12-18T05:58:02;18.90;;;9.45;;
62997;SDS011;55949;52.590;7.330;2022-12-18T05:59:03;18.80;;;8.68;;
62997;SDS011;55949;52.590;7.330;2022-12-18T06:00:04;17.35;;;8.45;;
62997;SDS011;55949;52.590;7.330;2022-12-18T06:01:09;17.73;;;8.13;;
62997;SDS011;55949;52.590;7.330;2022-12-18T06:02:14;16.02;;;6.88;;
62997;SDS011;55949;52.590;7.330;2022-12-18T06:03:15;14.02;;;7.25;;
62997;SDS011;55949;52.590;7.330;2022-12-18T06:04:16;19.65;;;8.60;;
62997;SDS011;55949;52.590;7.330;2022-12-18T06:05:16;15.80;;;7.18;;
62997;SDS011;55949;52.590;7.330;2022-12-18T06:06:18;16.38;;;7.82;;
62997;SDS011;55949;52.590;7.330;2022-12-18T06:07:21;15.13;;;7.22;;
62997;SDS011;55949;52.590;7.330;2022-12-18T06:08:21;16.60;;;7.43;;
62997;SDS011;55949;52.590;7.330;2022-12-18T06:09:22;15.32;;;7.38;;
62997;SDS011;55949;52.590;7.330;2022-12-18T06:10:23;15.75;;;8.18;;
62997;SDS011;55949;52.590;7.330;2022-12-18T06:11:24;16.95;;;7.88;;
62997;SDS011;55949;52.590;7.330;2022-12-18T06:12:26;14.02;;;7.57;;
62997;SDS011;55949;52.590;7.330;2022-12-18T06:13:26;14.27;;;7.30;;
62997;SDS011;55949;52.590;7.330;2022-12-18T06:14:27;14.35;;;7.85;;
62997;SDS011;55949;52.590;7.330;2022-12-18T06:15:28;15.48;;;7.85;;
62997;SDS011;55949;52.590;7.330;2022-12-18T06:16:29;14.40;;;7.32;;
62997;SDS011;55949;52.590;7.330;2022-12-18T06:17:30;16.25;;;8.07;;
62997;SDS011;55949;52.590;7.330;2022-12-18T06:18:31;16.05;;;8.07;;
62997;SDS011;55949;52.590;7.330;2022-12-18T06:19:32;13.43;;;7.38;;
62997;SDS011;55949;52.590;7.330;2022-12-18T06:20:33;14.65;;;7.20;;
62997;SDS011;55949;52.590;7.330;2022-12-18T06:21:36;15.02;;;7.95;;
62997;SDS011;55949;52.590;7.330;2022-12-18T06:22:37;15.82;;;8.63;;
62997;SDS011;55949;52.590;7.330;2022-12-18T06:23:37;17.13;;;7.13;;
62997;SDS011;55949;52.590;7.330;2022-12-18T06:24:38;14.35;;;6.55;;
62997;SDS011;55949;52.590;7.330;2022-12-18T06:25:39;16.40;;;6.30;;
62997;SDS011;55949;52.590;7.330;2022-12-18T06:26:39;13.13;;;6.88;;
62997;SDS011;55949;52.590;7.330;2022-12-18T06:27:40;18.92;;;7.65;;
62997;SDS011;55949;52.590;7.330;2022-12-18T06:28:41;16.50;;;7.65;;
62997;SDS011;55949;52.590;7.330;2022-12-18T06:29:42;14.60;;;7.13;;
62997;SDS011;55949;52.590;7.330;2022-12-18T06:30:43;15.02;;;7.10;;
62997;SDS011;55949;52.590;7.330;2022-12-18T06:31:44;16.90;;;8.25;;
62997;SDS011;55949;52.590;7.330;2022-12-18T06:32:45;20.50;;;8.65;;
62997;SDS011;55949;52.590;7.330;2022-12-18T06:33:47;14.73;;;7.57;;
62997;SDS011;55949;52.590;7.330;2022-12-18T06:34:48;17.58;;;7.57;;
62997;SDS011;55949;52.590;7.330;2022-12-18T06:35:49;16.48;;;7.90;;
62997;SDS011;55949;52.590;7.330;2022-12-18T06:36:50;18.20;;;7.82;;
62997;SDS011;55949;52.590;7.330;2022-12-18T06:37:50;20.45;;;8.25;;
62997;SDS011;55949;52.590;7.330;2022-12-18T06:38:51;18.98;;;7.75;;
62997;SDS011;55949;52.590;7.330;2022-12-18T06:39:52;13.73;;;8.00;;